createdAt,value
2016-12-19T00:00:04.752Z,0
2016-12-19T00:05:04.682Z,0
2016-12-19T00:10:04.123Z,0
2016-12-19T00:15:04.961Z,0
2016-12-19T00:20:04.395Z,0
2016-12-19T00:25:04.219Z,0
2016-12-19T00:30:04.147Z,0
2016-12-19T00:35:04.349Z,0
2016-12-19T00:40:04.500Z,0
2016-12-19T00:45:04.324Z,0
2016-12-19T00:50:04.703Z,0
2016-12-19T00:55:04.684Z,0
2016-12-19T01:00:04.707Z,0
2016-12-19T01:05:04.657Z,0
2016-12-19T01:10:04.960Z,0
2016-12-19T01:15:04.614Z,0
2016-12-19T01:20:04.950Z,0
2016-12-19T01:25:04.405Z,0
2016-12-19T01:30:04.296Z,0
2016-12-19T01:35:04.912Z,0
2016-12-19T01:40:03.986Z,0
2016-12-19T01:45:04.489Z,0
2016-12-19T01:50:04.720Z,0
2016-12-19T01:55:04.135Z,0
2016-12-19T02:00:04.971Z,0
2016-12-19T02:05:04.893Z,0
2016-12-19T02:10:04.833Z,0
2016-12-19T02:15:04.293Z,0
2016-12-19T02:20:04.452Z,0
2016-12-19T02:25:04.876Z,0
2016-12-19T02:30:04.553Z,0
2016-12-19T02:35:04.387Z,0
2016-12-19T02:40:04.379Z,0
2016-12-19T02:45:04.826Z,0
2016-12-19T02:50:04.486Z,0
2016-12-19T02:55:04.755Z,0
2016-12-19T03:00:04.884Z,0
2016-12-19T03:05:07.209Z,0
2016-12-19T03:10:04.849Z,0
2016-12-19T03:15:04.674Z,0
2016-12-19T03:20:03.957Z,0
2016-12-19T03:25:04.534Z,0
2016-12-19T03:30:04.545Z,0
2016-12-19T03:35:04.211Z,0
2016-12-19T03:40:04.606Z,0
2016-12-19T03:45:04.892Z,0
2016-12-19T03:50:04.419Z,0
2016-12-19T03:55:04.034Z,0
2016-12-19T04:00:04.736Z,0
2016-12-19T04:05:05.172Z,0
2016-12-19T04:10:04.609Z,0
2016-12-19T04:15:04.914Z,0
2016-12-19T04:20:03.958Z,0
2016-12-19T04:25:04.550Z,0
2016-12-19T04:30:04.761Z,0
2016-12-19T04:35:04.021Z,0
2016-12-19T04:40:04.048Z,0
2016-12-19T04:45:04.562Z,0
2016-12-19T04:50:04.792Z,0
2016-12-19T04:55:04.702Z,0
2016-12-19T05:00:05.008Z,0
2016-12-19T05:05:04.096Z,0
2016-12-19T05:10:04.793Z,0
2016-12-19T05:15:04.707Z,0
2016-12-19T05:20:04.691Z,0
2016-12-19T05:25:04.857Z,0
2016-12-19T05:30:04.252Z,0
2016-12-19T05:35:04.103Z,0
2016-12-19T05:40:04.295Z,0
2016-12-19T05:45:04.129Z,0
2016-12-19T05:50:04.189Z,0
2016-12-19T05:55:03.939Z,0
2016-12-19T06:00:04.283Z,0
2016-12-19T06:05:04.280Z,0
2016-12-19T06:10:04.785Z,0
2016-12-19T06:15:04.044Z,0
2016-12-19T06:20:04.315Z,0
2016-12-19T06:25:04.155Z,0
2016-12-19T06:30:04.150Z,0
2016-12-19T06:35:05.158Z,0
2016-12-19T06:40:04.519Z,0
2016-12-19T06:45:04.922Z,0
2016-12-19T06:50:04.595Z,0
2016-12-19T06:55:04.703Z,1
2016-12-19T07:00:04.716Z,2
2016-12-19T07:05:04.783Z,4
2016-12-19T07:10:04.571Z,11
2016-12-19T07:15:04.291Z,28
2016-12-19T07:20:04.401Z,40
2016-12-19T07:25:04.140Z,60
2016-12-19T07:30:04.471Z,95
2016-12-19T07:35:04.605Z,127
2016-12-19T07:40:04.920Z,218
2016-12-19T07:45:04.756Z,311
2016-12-19T07:50:04.209Z,403
2016-12-19T07:55:04.185Z,510
2016-12-19T08:00:04.183Z,612
2016-12-19T08:05:04.343Z,676
2016-12-19T08:10:04.471Z,780
2016-12-19T08:15:04.696Z,915
2016-12-19T13:35:37.016Z,3000
2016-12-19T13:40:04.080Z,1000
2016-12-19T13:45:04.284Z,1000
2016-12-19T13:50:03.980Z,2000
2016-12-19T13:55:04.496Z,2000
2016-12-19T14:00:04.466Z,2000
2016-12-19T14:05:04.336Z,1000
2016-12-19T14:10:04.307Z,1000
2016-12-19T14:15:04.189Z,1000
2016-12-19T14:20:04.255Z,1000
2016-12-19T14:25:04.519Z,2000
2016-12-19T14:30:04.213Z,2000
2016-12-19T14:35:03.935Z,869
2016-12-19T14:40:04.214Z,738
2016-12-19T14:45:04.340Z,542
2016-12-19T14:50:04.460Z,496
2016-12-19T14:55:04.446Z,502
2016-12-19T15:00:04.669Z,629
2016-12-19T15:05:04.627Z,510
2016-12-19T15:10:04.134Z,409
2016-12-19T15:15:04.878Z,356
2016-12-19T15:20:04.962Z,269
2016-12-19T15:25:04.036Z,157
2016-12-19T15:30:04.829Z,102
2016-12-19T15:35:04.760Z,72
2016-12-19T15:40:04.929Z,64
2016-12-19T15:45:04.415Z,53
2016-12-19T15:50:04.203Z,23
2016-12-19T15:55:04.362Z,11
2016-12-19T16:00:04.049Z,5
2016-12-19T16:05:04.195Z,2
2016-12-19T16:10:04.173Z,1
2016-12-19T16:15:04.707Z,0
2016-12-19T16:20:04.462Z,0
2016-12-19T16:25:04.438Z,0
2016-12-19T16:30:04.159Z,0
2016-12-19T16:35:04.974Z,0
2016-12-19T16:40:04.278Z,0
2016-12-19T16:45:04.538Z,0
2016-12-19T16:50:04.149Z,0
2016-12-19T16:55:04.509Z,0
2016-12-19T17:00:05.079Z,0
2016-12-19T17:05:04.453Z,0
2016-12-19T17:10:04.747Z,0
2016-12-19T17:15:04.534Z,0
2016-12-19T17:20:04.639Z,0
2016-12-19T17:25:05.146Z,0
2016-12-19T17:30:04.065Z,0
2016-12-19T17:35:04.305Z,0
2016-12-19T17:40:04.835Z,0
2016-12-19T17:45:04.259Z,0
2016-12-19T17:50:04.363Z,0
2016-12-19T17:55:04.230Z,0
2016-12-19T18:00:04.354Z,0
2016-12-19T18:05:04.286Z,0
2016-12-19T18:10:04.801Z,0
2016-12-19T18:15:04.106Z,0
2016-12-19T18:20:04.413Z,0
2016-12-19T18:25:04.688Z,0
2016-12-19T18:30:03.974Z,0
2016-12-19T18:35:04.743Z,0
2016-12-19T18:40:04.041Z,0
2016-12-19T18:45:04.262Z,0
2016-12-19T18:50:04.385Z,0
2016-12-19T18:55:04.557Z,0
2016-12-19T19:00:04.869Z,0
2016-12-19T19:05:04.929Z,0
2016-12-19T19:10:03.952Z,0
2016-12-19T19:15:04.773Z,0
2016-12-19T19:20:04.399Z,0
2016-12-19T19:25:04.298Z,0
2016-12-19T19:30:04.198Z,0
2016-12-19T19:35:04.441Z,0
2016-12-19T19:40:04.836Z,0
2016-12-19T19:45:04.731Z,0
2016-12-19T19:55:04.823Z,0
2016-12-19T20:00:04.305Z,0
2016-12-19T20:05:04.622Z,0
2016-12-19T20:10:04.411Z,0
2016-12-19T20:15:04.448Z,0
2016-12-19T20:20:04.255Z,0
2016-12-19T20:25:04.180Z,0
2016-12-19T20:30:04.600Z,0
2016-12-19T20:35:04.895Z,0
2016-12-19T20:40:04.563Z,0
2016-12-19T20:45:04.925Z,0
2016-12-19T20:50:03.988Z,0
2016-12-19T20:55:04.322Z,0
2016-12-19T21:00:04.743Z,0
2016-12-19T21:05:04.528Z,0
2016-12-19T21:10:04.936Z,0
2016-12-19T21:15:04.056Z,0
2016-12-19T21:20:04.777Z,0
2016-12-19T21:25:04.765Z,0
2016-12-19T21:30:04.092Z,0
2016-12-19T21:35:04.524Z,0
2016-12-19T21:40:04.394Z,0
2016-12-19T21:45:04.505Z,0
2016-12-19T21:50:04.608Z,0
2016-12-19T21:55:04.664Z,0
2016-12-19T22:00:04.932Z,0
2016-12-19T22:05:04.408Z,0
2016-12-19T22:10:04.800Z,0
2016-12-19T22:15:04.876Z,0
2016-12-19T22:20:04.814Z,0
2016-12-19T22:25:04.478Z,0
2016-12-19T22:30:04.229Z,0
2016-12-19T22:35:04.112Z,0
2016-12-19T22:40:04.957Z,0
2016-12-19T22:45:04.364Z,0
2016-12-19T22:50:04.396Z,0
2016-12-19T22:55:03.914Z,0
2016-12-19T23:00:04.609Z,0
2016-12-19T23:05:04.445Z,0
2016-12-19T23:10:04.945Z,0
2016-12-19T23:15:04.203Z,0
2016-12-19T23:20:04.697Z,0
2016-12-19T23:25:04.624Z,0
2016-12-19T23:30:04.061Z,0
2016-12-19T23:35:04.543Z,0
2016-12-19T23:40:04.597Z,0
2016-12-19T23:45:04.965Z,0
2016-12-19T23:50:04.667Z,0
2016-12-19T23:55:04.682Z,0
